Slavkov u Brna, Czech Republic
Current Conditions -  °F | °C
As of 6:30 PM on Thursday 29 Jan 2015 (Local Time) from LKTB Reporting Station
Broken Clouds Broken Clouds  
Wind Chill: 24°   Ceiling: 600
Heat Index: 32°   Visibility: 4mi
Dew Point: 30°   Wind: 10mph
Humidity: 93%   Direction: 140°SE
Pressure: 29.38"   Gusts: NA
Location:  49.15°N, 16.86°E
Report Text: LKTB 291630Z 14009KT 6000 BKN006 M00/M01 Q0995 R28/25//95NOSIG
Loading
Personal Weather Stations






























Interactive Weather Map New forecast layout! Learn more

10-Day Weather Forecast

Advertisements
Track Severe Weather on mobile